Terminal Aerodrome Forecast
Issued by NWS

Home | Current Version | Previous Version | Text Only | Print | Product List | Glossary On
Versions: 1 2 3 4 5 6 7 8 9 10 11 12 13 14 15 16 17 18 19 20 21 22
536
FTUS43 KUNR 241120
TAFGCC
TAF
KGCC 241120Z 2412/2512 18006KT P6SM SCT050
     FM242200 16011KT P6SM VCTS BKN060CB
      TEMPO 2422/2502 3SM -TSRA OVC050CB
     FM250200 VRB05KT P6SM VCSH OVC030
     FM250600 30006KT P6SM OVC012=

USA.gov is the U.S. government's official web portal to all federal, state and local government web resources and services.